sensor_id;sensor_type;location;lat;lon;timestamp;temperature;humidity
20442;DHT22;10380;52.102;20.614;2022-07-09T00:02:15;16.10;99.90
20442;DHT22;10380;52.102;20.614;2022-07-09T00:04:43;16.10;99.90
20442;DHT22;10380;52.102;20.614;2022-07-09T00:07:11;16.10;99.90
20442;DHT22;10380;52.102;20.614;2022-07-09T00:09:38;16.10;99.90
20442;DHT22;10380;52.102;20.614;2022-07-09T00:12:05;16.10;99.90
20442;DHT22;10380;52.102;20.614;2022-07-09T00:14:33;16.10;99.90
20442;DHT22;10380;52.102;20.614;2022-07-09T00:17:01;16.10;99.90
20442;DHT22;10380;52.102;20.614;2022-07-09T00:19:30;16.20;99.90
20442;DHT22;10380;52.102;20.614;2022-07-09T00:22:01;16.20;99.90
20442;DHT22;10380;52.102;20.614;2022-07-09T00:24:32;16.20;99.90
20442;DHT22;10380;52.102;20.614;2022-07-09T00:27:00;16.20;99.90
20442;DHT22;10380;52.102;20.614;2022-07-09T00:29:27;16.20;99.90
20442;DHT22;10380;52.102;20.614;2022-07-09T00:32:00;16.20;99.90
20442;DHT22;10380;52.102;20.614;2022-07-09T00:34:28;16.20;99.90
20442;DHT22;10380;52.102;20.614;2022-07-09T00:36:55;16.20;99.90
20442;DHT22;10380;52.102;20.614;2022-07-09T00:39:22;16.10;99.90
20442;DHT22;10380;52.102;20.614;2022-07-09T00:42:07;16.10;99.90
20442;DHT22;10380;52.102;20.614;2022-07-09T00:44:34;16.10;99.90
20442;DHT22;10380;52.102;20.614;2022-07-09T00:47:03;16.00;99.90
20442;DHT22;10380;52.102;20.614;2022-07-09T00:49:39;16.00;99.90
20442;DHT22;10380;52.102;20.614;2022-07-09T00:52:19;16.00;99.90
20442;DHT22;10380;52.102;20.614;2022-07-09T00:54:54;16.00;99.90
20442;DHT22;10380;52.102;20.614;2022-07-09T00:57:23;15.90;99.90
20442;DHT22;10380;52.102;20.614;2022-07-09T00:59:51;15.90;99.90
20442;DHT22;10380;52.102;20.614;2022-07-09T01:02:18;15.90;99.90
20442;DHT22;10380;52.102;20.614;2022-07-09T01:04:48;15.90;99.90
20442;DHT22;10380;52.102;20.614;2022-07-09T01:07:25;15.80;99.90
20442;DHT22;10380;52.102;20.614;2022-07-09T01:10:08;15.70;99.90
20442;DHT22;10380;52.102;20.614;2022-07-09T01:12:35;15.70;99.90
20442;DHT22;10380;52.102;20.614;2022-07-09T01:15:03;15.60;99.90
20442;DHT22;10380;52.102;20.614;2022-07-09T01:17:40;15.60;99.90
20442;DHT22;10380;52.102;20.614;2022-07-09T01:20:10;15.50;99.90
20442;DHT22;10380;52.102;20.614;2022-07-09T01:22:37;15.50;99.90
20442;DHT22;10380;52.102;20.614;2022-07-09T01:25:07;15.40;99.90
20442;DHT22;10380;52.102;20.614;2022-07-09T01:27:37;15.30;99.90
20442;DHT22;10380;52.102;20.614;2022-07-09T01:30:10;15.30;99.90
20442;DHT22;10380;52.102;20.614;2022-07-09T01:32:39;15.20;99.90
20442;DHT22;10380;52.102;20.614;2022-07-09T01:35:12;15.10;99.90
20442;DHT22;10380;52.102;20.614;2022-07-09T01:37:42;15.00;99.90
20442;DHT22;10380;52.102;20.614;2022-07-09T01:40:16;15.00;99.90
20442;DHT22;10380;52.102;20.614;2022-07-09T01:42:44;14.90;99.90
20442;DHT22;10380;52.102;20.614;2022-07-09T01:45:11;14.80;99.90
20442;DHT22;10380;52.102;20.614;2022-07-09T01:47:40;14.80;99.90
20442;DHT22;10380;52.102;20.614;2022-07-09T01:50:10;14.70;99.90
20442;DHT22;10380;52.102;20.614;2022-07-09T01:52:38;14.70;99.90
20442;DHT22;10380;52.102;20.614;2022-07-09T01:55:07;14.60;99.90
20442;DHT22;10380;52.102;20.614;2022-07-09T01:57:34;14.60;99.90
20442;DHT22;10380;52.102;20.614;2022-07-09T02:00:03;14.60;99.90
20442;DHT22;10380;52.102;20.614;2022-07-09T02:02:32;14.50;99.90
20442;DHT22;10380;52.102;20.614;2022-07-09T02:05:00;14.50;99.90
20442;DHT22;10380;52.102;20.614;2022-07-09T02:07:28;14.50;99.90
20442;DHT22;10380;52.102;20.614;2022-07-09T02:09:55;14.50;99.90
20442;DHT22;10380;52.102;20.614;2022-07-09T02:12:28;14.40;99.90
20442;DHT22;10380;52.102;20.614;2022-07-09T02:14:55;14.40;99.90
20442;DHT22;10380;52.102;20.614;2022-07-09T02:17:23;14.50;99.90
20442;DHT22;10380;52.102;20.614;2022-07-09T02:19:52;14.50;99.90
20442;DHT22;10380;52.102;20.614;2022-07-09T02:22:19;14.40;99.90
20442;DHT22;10380;52.102;20.614;2022-07-09T02:24:47;14.50;99.90
20442;DHT22;10380;52.102;20.614;2022-07-09T02:27:15;14.40;99.90
20442;DHT22;10380;52.102;20.614;2022-07-09T02:29:42;14.40;99.90
20442;DHT22;10380;52.102;20.614;2022-07-09T02:32:09;14.40;99.90
20442;DHT22;10380;52.102;20.614;2022-07-09T02:34:41;14.40;99.90
20442;DHT22;10380;52.102;20.614;2022-07-09T02:37:08;14.40;99.90
20442;DHT22;10380;52.102;20.614;2022-07-09T02:39:35;14.30;99.90
20442;DHT22;10380;52.102;20.614;2022-07-09T02:42:03;14.30;99.90
20442;DHT22;10380;52.102;20.614;2022-07-09T02:44:30;14.30;99.90
20442;DHT22;10380;52.102;20.614;2022-07-09T02:46:57;14.20;99.90
20442;DHT22;10380;52.102;20.614;2022-07-09T02:49:26;14.20;99.90
20442;DHT22;10380;52.102;20.614;2022-07-09T02:51:54;14.20;99.90
20442;DHT22;10380;52.102;20.614;2022-07-09T02:54:28;14.20;99.90
20442;DHT22;10380;52.102;20.614;2022-07-09T02:56:55;14.20;99.90
20442;DHT22;10380;52.102;20.614;2022-07-09T02:59:22;14.20;99.90
20442;DHT22;10380;52.102;20.614;2022-07-09T03:01:49;14.20;99.90
20442;DHT22;10380;52.102;20.614;2022-07-09T03:04:16;14.20;99.90
20442;DHT22;10380;52.102;20.614;2022-07-09T03:06:43;14.20;99.90
20442;DHT22;10380;52.102;20.614;2022-07-09T03:09:11;14.20;99.90
20442;DHT22;10380;52.102;20.614;2022-07-09T03:11:39;14.20;99.90
20442;DHT22;10380;52.102;20.614;2022-07-09T03:14:06;14.20;99.90
20442;DHT22;10380;52.102;20.614;2022-07-09T03:16:36;14.20;99.90
20442;DHT22;10380;52.102;20.614;2022-07-09T03:19:03;14.20;99.90
20442;DHT22;10380;52.102;20.614;2022-07-09T03:21:31;14.20;99.90
20442;DHT22;10380;52.102;20.614;2022-07-09T03:23:59;14.20;99.90
20442;DHT22;10380;52.102;20.614;2022-07-09T03:26:27;14.20;99.90
20442;DHT22;10380;52.102;20.614;2022-07-09T03:28:55;14.20;99.90
20442;DHT22;10380;52.102;20.614;2022-07-09T03:31:24;14.20;99.90
20442;DHT22;10380;52.102;20.614;2022-07-09T03:33:54;14.20;99.90
20442;DHT22;10380;52.102;20.614;2022-07-09T03:36:24;14.10;99.90
20442;DHT22;10380;52.102;20.614;2022-07-09T03:38:51;14.20;99.90
20442;DHT22;10380;52.102;20.614;2022-07-09T03:41:19;14.20;99.90
20442;DHT22;10380;52.102;20.614;2022-07-09T03:43:51;14.20;99.90
20442;DHT22;10380;52.102;20.614;2022-07-09T03:46:18;14.20;99.90
20442;DHT22;10380;52.102;20.614;2022-07-09T03:48:45;14.20;99.90
20442;DHT22;10380;52.102;20.614;2022-07-09T03:51:22;14.30;99.90
20442;DHT22;10380;52.102;20.614;2022-07-09T03:53:53;14.30;99.90
20442;DHT22;10380;52.102;20.614;2022-07-09T03:56:22;14.30;99.90
20442;DHT22;10380;52.102;20.614;2022-07-09T03:58:50;14.30;99.90
20442;DHT22;10380;52.102;20.614;2022-07-09T04:01:17;14.40;99.90
20442;DHT22;10380;52.102;20.614;2022-07-09T04:03:46;14.40;99.90
20442;DHT22;10380;52.102;20.614;2022-07-09T04:06:13;14.40;99.90
20442;DHT22;10380;52.102;20.614;2022-07-09T04:08:42;14.50;99.90
20442;DHT22;10380;52.102;20.614;2022-07-09T04:11:15;14.50;99.90
20442;DHT22;10380;52.102;20.614;2022-07-09T04:13:44;14.60;99.90
20442;DHT22;10380;52.102;20.614;2022-07-09T04:16:17;14.60;99.90
20442;DHT22;10380;52.102;20.614;2022-07-09T04:18:47;14.70;99.90
20442;DHT22;10380;52.102;20.614;2022-07-09T04:21:15;14.80;99.90
20442;DHT22;10380;52.102;20.614;2022-07-09T04:23:43;14.90;99.90
20442;DHT22;10380;52.102;20.614;2022-07-09T04:26:16;15.00;99.90
20442;DHT22;10380;52.102;20.614;2022-07-09T04:28:51;15.10;99.90
20442;DHT22;10380;52.102;20.614;2022-07-09T04:31:24;15.30;99.90
20442;DHT22;10380;52.102;20.614;2022-07-09T04:33:53;15.50;99.90
20442;DHT22;10380;52.102;20.614;2022-07-09T04:36:21;15.60;99.90
20442;DHT22;10380;52.102;20.614;2022-07-09T04:38:48;15.50;99.90
20442;DHT22;10380;52.102;20.614;2022-07-09T04:41:16;15.50;99.90
20442;DHT22;10380;52.102;20.614;2022-07-09T04:43:46;15.50;99.90
20442;DHT22;10380;52.102;20.614;2022-07-09T04:46:13;15.50;99.90
20442;DHT22;10380;52.102;20.614;2022-07-09T04:48:44;15.50;99.90
20442;DHT22;10380;52.102;20.614;2022-07-09T04:51:12;15.50;99.90
20442;DHT22;10380;52.102;20.614;2022-07-09T04:53:39;15.60;99.90
20442;DHT22;10380;52.102;20.614;2022-07-09T04:56:06;15.70;99.90
20442;DHT22;10380;52.102;20.614;2022-07-09T04:58:36;15.80;99.90
20442;DHT22;10380;52.102;20.614;2022-07-09T05:01:04;15.90;99.90
20442;DHT22;10380;52.102;20.614;2022-07-09T05:03:31;16.00;99.90
20442;DHT22;10380;52.102;20.614;2022-07-09T05:05:59;16.10;99.90
20442;DHT22;10380;52.102;20.614;2022-07-09T05:08:26;16.10;99.90
20442;DHT22;10380;52.102;20.614;2022-07-09T05:10:52;16.20;99.90
20442;DHT22;10380;52.102;20.614;2022-07-09T05:13:19;16.30;99.90
20442;DHT22;10380;52.102;20.614;2022-07-09T05:15:46;16.20;99.90
20442;DHT22;10380;52.102;20.614;2022-07-09T05:18:13;16.20;99.90
20442;DHT22;10380;52.102;20.614;2022-07-09T05:20:40;16.20;99.90
20442;DHT22;10380;52.102;20.614;2022-07-09T05:23:09;16.20;99.90
20442;DHT22;10380;52.102;20.614;2022-07-09T05:25:36;16.20;99.90
20442;DHT22;10380;52.102;20.614;2022-07-09T05:28:03;16.20;99.90
20442;DHT22;10380;52.102;20.614;2022-07-09T05:30:32;16.30;99.90
20442;DHT22;10380;52.102;20.614;2022-07-09T05:33:05;16.30;99.90
20442;DHT22;10380;52.102;20.614;2022-07-09T05:35:33;16.30;99.90
20442;DHT22;10380;52.102;20.614;2022-07-09T05:38:00;16.30;99.90
20442;DHT22;10380;52.102;20.614;2022-07-09T05:40:29;16.30;99.90
20442;DHT22;10380;52.102;20.614;2022-07-09T05:42:56;16.30;99.90
20442;DHT22;10380;52.102;20.614;2022-07-09T05:45:23;16.30;99.90
20442;DHT22;10380;52.102;20.614;2022-07-09T05:47:50;16.40;99.90
20442;DHT22;10380;52.102;20.614;2022-07-09T05:50:19;16.40;99.90
20442;DHT22;10380;52.102;20.614;2022-07-09T05:52:46;16.60;99.90
20442;DHT22;10380;52.102;20.614;2022-07-09T05:55:16;16.60;99.90
20442;DHT22;10380;52.102;20.614;2022-07-09T05:57:43;16.80;99.90
20442;DHT22;10380;52.102;20.614;2022-07-09T06:00:10;16.90;99.90
20442;DHT22;10380;52.102;20.614;2022-07-09T06:02:37;17.10;99.90
20442;DHT22;10380;52.102;20.614;2022-07-09T06:05:10;17.20;99.90
20442;DHT22;10380;52.102;20.614;2022-07-09T06:07:40;17.10;99.90
20442;DHT22;10380;52.102;20.614;2022-07-09T06:10:12;17.10;99.90
20442;DHT22;10380;52.102;20.614;2022-07-09T06:12:41;17.20;99.90
20442;DHT22;10380;52.102;20.614;2022-07-09T06:15:10;17.10;99.90
20442;DHT22;10380;52.102;20.614;2022-07-09T06:17:37;17.20;99.90
20442;DHT22;10380;52.102;20.614;2022-07-09T06:20:05;17.20;99.90
20442;DHT22;10380;52.102;20.614;2022-07-09T06:22:33;17.30;99.90
20442;DHT22;10380;52.102;20.614;2022-07-09T06:25:01;17.40;99.90
20442;DHT22;10380;52.102;20.614;2022-07-09T06:27:27;17.40;99.90
20442;DHT22;10380;52.102;20.614;2022-07-09T06:29:54;17.60;99.90
20442;DHT22;10380;52.102;20.614;2022-07-09T06:32:22;17.70;99.90
20442;DHT22;10380;52.102;20.614;2022-07-09T06:34:50;17.80;99.90
20442;DHT22;10380;52.102;20.614;2022-07-09T06:37:17;18.00;99.90
20442;DHT22;10380;52.102;20.614;2022-07-09T06:39:45;18.20;99.90
20442;DHT22;10380;52.102;20.614;2022-07-09T06:42:13;18.30;99.90
20442;DHT22;10380;52.102;20.614;2022-07-09T06:44:42;18.40;99.90
20442;DHT22;10380;52.102;20.614;2022-07-09T06:47:13;18.50;99.90
20442;DHT22;10380;52.102;20.614;2022-07-09T06:49:40;18.50;99.90
20442;DHT22;10380;52.102;20.614;2022-07-09T06:52:07;18.50;99.90
20442;DHT22;10380;52.102;20.614;2022-07-09T06:54:35;18.50;99.90
20442;DHT22;10380;52.102;20.614;2022-07-09T06:57:03;18.60;99.90
20442;DHT22;10380;52.102;20.614;2022-07-09T06:59:33;18.60;99.90
20442;DHT22;10380;52.102;20.614;2022-07-09T07:02:01;18.60;99.90
20442;DHT22;10380;52.102;20.614;2022-07-09T07:04:34;18.60;99.90
20442;DHT22;10380;52.102;20.614;2022-07-09T07:07:01;18.60;99.90
20442;DHT22;10380;52.102;20.614;2022-07-09T07:09:28;18.60;99.90
20442;DHT22;10380;52.102;20.614;2022-07-09T07:11:58;18.60;99.90
20442;DHT22;10380;52.102;20.614;2022-07-09T07:14:26;18.60;99.90
20442;DHT22;10380;52.102;20.614;2022-07-09T07:16:54;18.70;99.90
20442;DHT22;10380;52.102;20.614;2022-07-09T07:19:21;18.80;99.90
20442;DHT22;10380;52.102;20.614;2022-07-09T07:21:49;18.90;99.90
20442;DHT22;10380;52.102;20.614;2022-07-09T07:24:16;19.00;99.90
20442;DHT22;10380;52.102;20.614;2022-07-09T07:26:43;19.00;99.90
20442;DHT22;10380;52.102;20.614;2022-07-09T07:29:10;19.10;99.90
20442;DHT22;10380;52.102;20.614;2022-07-09T07:31:39;19.10;99.90
20442;DHT22;10380;52.102;20.614;2022-07-09T07:34:06;19.20;99.90
20442;DHT22;10380;52.102;20.614;2022-07-09T07:36:33;19.30;99.90
20442;DHT22;10380;52.102;20.614;2022-07-09T07:39:02;19.40;99.90
20442;DHT22;10380;52.102;20.614;2022-07-09T07:41:29;19.40;99.90
20442;DHT22;10380;52.102;20.614;2022-07-09T07:43:56;19.40;99.90
20442;DHT22;10380;52.102;20.614;2022-07-09T07:46:23;19.40;99.90
20442;DHT22;10380;52.102;20.614;2022-07-09T07:48:50;19.50;99.90
20442;DHT22;10380;52.102;20.614;2022-07-09T07:51:17;19.60;99.90
20442;DHT22;10380;52.102;20.614;2022-07-09T07:53:44;19.70;99.90
20442;DHT22;10380;52.102;20.614;2022-07-09T07:56:11;19.70;99.90
20442;DHT22;10380;52.102;20.614;2022-07-09T07:58:38;19.70;99.90
20442;DHT22;10380;52.102;20.614;2022-07-09T08:01:06;19.70;99.90
20442;DHT22;10380;52.102;20.614;2022-07-09T08:03:34;19.70;99.90
20442;DHT22;10380;52.102;20.614;2022-07-09T08:06:01;19.80;99.90
20442;DHT22;10380;52.102;20.614;2022-07-09T08:08:29;19.80;99.90
20442;DHT22;10380;52.102;20.614;2022-07-09T08:10:56;19.90;99.90
20442;DHT22;10380;52.102;20.614;2022-07-09T08:13:28;19.80;99.90
20442;DHT22;10380;52.102;20.614;2022-07-09T08:15:56;19.80;99.90
20442;DHT22;10380;52.102;20.614;2022-07-09T08:18:26;19.90;99.90
20442;DHT22;10380;52.102;20.614;2022-07-09T08:20:56;19.90;99.90
20442;DHT22;10380;52.102;20.614;2022-07-09T08:23:25;19.90;99.90
20442;DHT22;10380;52.102;20.614;2022-07-09T08:25:54;19.90;99.90
20442;DHT22;10380;52.102;20.614;2022-07-09T08:28:23;19.90;99.90
20442;DHT22;10380;52.102;20.614;2022-07-09T08:30:52;20.00;99.90
20442;DHT22;10380;52.102;20.614;2022-07-09T08:33:19;20.10;99.90
20442;DHT22;10380;52.102;20.614;2022-07-09T08:35:46;20.10;99.90
20442;DHT22;10380;52.102;20.614;2022-07-09T08:38:14;20.20;99.90
20442;DHT22;10380;52.102;20.614;2022-07-09T08:40:41;20.30;99.90
20442;DHT22;10380;52.102;20.614;2022-07-09T08:43:09;20.50;99.90
20442;DHT22;10380;52.102;20.614;2022-07-09T08:45:38;20.60;99.90
20442;DHT22;10380;52.102;20.614;2022-07-09T08:48:05;21.00;99.90
20442;DHT22;10380;52.102;20.614;2022-07-09T08:50:34;21.10;99.90
20442;DHT22;10380;52.102;20.614;2022-07-09T08:53:02;21.20;99.90
20442;DHT22;10380;52.102;20.614;2022-07-09T08:55:30;21.30;99.90
20442;DHT22;10380;52.102;20.614;2022-07-09T08:57:57;21.40;99.90
20442;DHT22;10380;52.102;20.614;2022-07-09T09:00:24;21.30;99.90
20442;DHT22;10380;52.102;20.614;2022-07-09T09:02:51;21.30;99.90
20442;DHT22;10380;52.102;20.614;2022-07-09T09:05:19;21.10;99.90
20442;DHT22;10380;52.102;20.614;2022-07-09T09:07:46;21.10;99.90
20442;DHT22;10380;52.102;20.614;2022-07-09T09:10:24;21.00;99.90
20442;DHT22;10380;52.102;20.614;2022-07-09T09:13:01;21.00;99.90
20442;DHT22;10380;52.102;20.614;2022-07-09T09:15:28;21.10;99.90
20442;DHT22;10380;52.102;20.614;2022-07-09T09:17:57;21.10;99.90
20442;DHT22;10380;52.102;20.614;2022-07-09T09:20:24;21.00;99.90
20442;DHT22;10380;52.102;20.614;2022-07-09T09:22:53;21.10;99.90
20442;DHT22;10380;52.102;20.614;2022-07-09T09:25:27;21.30;99.90
20442;DHT22;10380;52.102;20.614;2022-07-09T09:30:23;21.60;99.90
20442;DHT22;10380;52.102;20.614;2022-07-09T09:33:01;21.70;99.90
20442;DHT22;10380;52.102;20.614;2022-07-09T09:35:33;21.70;99.90
20442;DHT22;10380;52.102;20.614;2022-07-09T09:38:00;21.40;99.90
20442;DHT22;10380;52.102;20.614;2022-07-09T09:40:27;21.10;99.90
20442;DHT22;10380;52.102;20.614;2022-07-09T09:42:58;20.80;99.90
20442;DHT22;10380;52.102;20.614;2022-07-09T09:45:27;20.70;99.90
20442;DHT22;10380;52.102;20.614;2022-07-09T09:47:55;20.50;99.90
20442;DHT22;10380;52.102;20.614;2022-07-09T09:50:25;20.30;99.90
20442;DHT22;10380;52.102;20.614;2022-07-09T09:52:53;20.30;99.90
20442;DHT22;10380;52.102;20.614;2022-07-09T09:55:22;20.30;99.90
20442;DHT22;10380;52.102;20.614;2022-07-09T09:57:50;20.60;99.90
20442;DHT22;10380;52.102;20.614;2022-07-09T10:00:19;20.70;99.90
20442;DHT22;10380;52.102;20.614;2022-07-09T10:02:48;21.00;99.90
20442;DHT22;10380;52.102;20.614;2022-07-09T10:05:16;21.20;99.90
20442;DHT22;10380;52.102;20.614;2022-07-09T10:07:46;21.40;99.90
20442;DHT22;10380;52.102;20.614;2022-07-09T10:10:20;21.60;99.90
20442;DHT22;10380;52.102;20.614;2022-07-09T10:12:47;21.80;99.90
20442;DHT22;10380;52.102;20.614;2022-07-09T10:15:22;21.80;99.90
20442;DHT22;10380;52.102;20.614;2022-07-09T10:17:50;21.90;99.90
20442;DHT22;10380;52.102;20.614;2022-07-09T10:20:17;22.10;99.90
20442;DHT22;10380;52.102;20.614;2022-07-09T10:22:45;22.20;99.90
20442;DHT22;10380;52.102;20.614;2022-07-09T10:25:28;22.30;99.90
20442;DHT22;10380;52.102;20.614;2022-07-09T10:27:56;22.50;99.90
20442;DHT22;10380;52.102;20.614;2022-07-09T10:30:25;22.50;99.90
20442;DHT22;10380;52.102;20.614;2022-07-09T10:33:13;22.60;99.90
20442;DHT22;10380;52.102;20.614;2022-07-09T10:35:45;22.60;99.90
20442;DHT22;10380;52.102;20.614;2022-07-09T10:38:13;22.60;99.90
20442;DHT22;10380;52.102;20.614;2022-07-09T10:40:44;22.50;99.90
20442;DHT22;10380;52.102;20.614;2022-07-09T10:43:12;22.50;99.90
20442;DHT22;10380;52.102;20.614;2022-07-09T10:45:44;22.50;99.90
20442;DHT22;10380;52.102;20.614;2022-07-09T10:48:13;22.50;99.90
20442;DHT22;10380;52.102;20.614;2022-07-09T10:50:45;22.50;99.90
20442;DHT22;10380;52.102;20.614;2022-07-09T10:53:13;22.50;99.90
20442;DHT22;10380;52.102;20.614;2022-07-09T10:55:44;22.60;99.90
20442;DHT22;10380;52.102;20.614;2022-07-09T10:58:19;22.40;99.90
20442;DHT22;10380;52.102;20.614;2022-07-09T11:01:04;22.20;99.90
20442;DHT22;10380;52.102;20.614;2022-07-09T11:03:31;22.00;99.90
20442;DHT22;10380;52.102;20.614;2022-07-09T11:05:59;21.90;99.90
20442;DHT22;10380;52.102;20.614;2022-07-09T11:08:26;21.90;99.90
20442;DHT22;10380;52.102;20.614;2022-07-09T11:10:53;21.90;99.90
20442;DHT22;10380;52.102;20.614;2022-07-09T11:13:23;21.90;99.90
20442;DHT22;10380;52.102;20.614;2022-07-09T11:15:58;21.90;99.90
20442;DHT22;10380;52.102;20.614;2022-07-09T11:18:27;21.80;99.90
20442;DHT22;10380;52.102;20.614;2022-07-09T11:20:54;21.90;99.90
20442;DHT22;10380;52.102;20.614;2022-07-09T11:23:21;21.90;99.90
20442;DHT22;10380;52.102;20.614;2022-07-09T11:25:48;22.00;99.90
20442;DHT22;10380;52.102;20.614;2022-07-09T11:28:23;22.30;99.90
20442;DHT22;10380;52.102;20.614;2022-07-09T11:31:03;22.60;99.90
20442;DHT22;10380;52.102;20.614;2022-07-09T11:33:32;22.90;99.90
20442;DHT22;10380;52.102;20.614;2022-07-09T11:36:20;23.10;99.90
20442;DHT22;10380;52.102;20.614;2022-07-09T11:38:56;23.40;99.90
20442;DHT22;10380;52.102;20.614;2022-07-09T11:41:24;23.60;99.90
20442;DHT22;10380;52.102;20.614;2022-07-09T11:43:51;23.60;99.90
20442;DHT22;10380;52.102;20.614;2022-07-09T11:46:19;23.60;99.90
20442;DHT22;10380;52.102;20.614;2022-07-09T11:48:54;23.40;99.90
20442;DHT22;10380;52.102;20.614;2022-07-09T11:51:31;23.00;99.90
20442;DHT22;10380;52.102;20.614;2022-07-09T11:54:02;22.80;99.90
20442;DHT22;10380;52.102;20.614;2022-07-09T11:56:42;22.70;99.90
20442;DHT22;10380;52.102;20.614;2022-07-09T11:59:12;22.90;99.90
20442;DHT22;10380;52.102;20.614;2022-07-09T12:01:40;23.20;99.90
20442;DHT22;10380;52.102;20.614;2022-07-09T12:04:18;23.60;99.90
20442;DHT22;10380;52.102;20.614;2022-07-09T12:06:50;24.30;99.90
20442;DHT22;10380;52.102;20.614;2022-07-09T12:09:31;24.90;99.90
20442;DHT22;10380;52.102;20.614;2022-07-09T12:11:59;25.30;99.90
20442;DHT22;10380;52.102;20.614;2022-07-09T12:14:26;25.40;99.90
20442;DHT22;10380;52.102;20.614;2022-07-09T12:16:53;25.30;99.90
20442;DHT22;10380;52.102;20.614;2022-07-09T12:19:20;25.40;99.90
20442;DHT22;10380;52.102;20.614;2022-07-09T12:21:47;25.60;99.90
20442;DHT22;10380;52.102;20.614;2022-07-09T12:24:19;25.90;99.90
20442;DHT22;10380;52.102;20.614;2022-07-09T12:26:46;26.20;99.90
20442;DHT22;10380;52.102;20.614;2022-07-09T12:29:33;26.30;99.90
20442;DHT22;10380;52.102;20.614;2022-07-09T12:31:59;26.00;99.90
20442;DHT22;10380;52.102;20.614;2022-07-09T12:34:26;25.60;99.90
20442;DHT22;10380;52.102;20.614;2022-07-09T12:36:54;25.40;99.90
20442;DHT22;10380;52.102;20.614;2022-07-09T12:39:26;25.50;99.90
20442;DHT22;10380;52.102;20.614;2022-07-09T12:41:53;25.80;99.90
20442;DHT22;10380;52.102;20.614;2022-07-09T12:44:20;26.10;99.90
20442;DHT22;10380;52.102;20.614;2022-07-09T12:46:47;26.60;99.90
20442;DHT22;10380;52.102;20.614;2022-07-09T12:49:15;27.10;99.90
20442;DHT22;10380;52.102;20.614;2022-07-09T12:51:42;27.10;99.90
20442;DHT22;10380;52.102;20.614;2022-07-09T12:54:09;26.50;99.90
20442;DHT22;10380;52.102;20.614;2022-07-09T12:56:36;26.10;99.90
20442;DHT22;10380;52.102;20.614;2022-07-09T12:59:23;25.60;99.90
20442;DHT22;10380;52.102;20.614;2022-07-09T13:01:51;25.00;99.90
20442;DHT22;10380;52.102;20.614;2022-07-09T13:04:18;24.60;99.90
20442;DHT22;10380;52.102;20.614;2022-07-09T13:06:47;24.20;99.90
20442;DHT22;10380;52.102;20.614;2022-07-09T13:09:14;23.70;99.90
20442;DHT22;10380;52.102;20.614;2022-07-09T13:11:41;23.30;99.90
20442;DHT22;10380;52.102;20.614;2022-07-09T13:14:08;22.90;99.90
20442;DHT22;10380;52.102;20.614;2022-07-09T13:16:36;22.60;99.90
20442;DHT22;10380;52.102;20.614;2022-07-09T13:19:03;22.40;99.90
20442;DHT22;10380;52.102;20.614;2022-07-09T13:21:30;22.20;99.90
20442;DHT22;10380;52.102;20.614;2022-07-09T13:24:00;22.10;99.90
20442;DHT22;10380;52.102;20.614;2022-07-09T13:26:27;21.90;99.90
20442;DHT22;10380;52.102;20.614;2022-07-09T13:29:02;21.80;99.90
20442;DHT22;10380;52.102;20.614;2022-07-09T13:31:29;21.60;99.90
20442;DHT22;10380;52.102;20.614;2022-07-09T13:33:58;21.50;99.90
20442;DHT22;10380;52.102;20.614;2022-07-09T13:36:25;21.60;99.90
20442;DHT22;10380;52.102;20.614;2022-07-09T13:38:52;21.70;99.90
20442;DHT22;10380;52.102;20.614;2022-07-09T13:41:19;21.80;99.90
20442;DHT22;10380;52.102;20.614;2022-07-09T13:43:49;22.00;99.90
20442;DHT22;10380;52.102;20.614;2022-07-09T13:46:18;22.40;99.90
20442;DHT22;10380;52.102;20.614;2022-07-09T13:48:46;22.40;99.90
20442;DHT22;10380;52.102;20.614;2022-07-09T13:51:15;22.30;99.90
20442;DHT22;10380;52.102;20.614;2022-07-09T13:53:42;22.20;99.90
20442;DHT22;10380;52.102;20.614;2022-07-09T13:56:09;21.90;99.90
20442;DHT22;10380;52.102;20.614;2022-07-09T13:58:37;21.70;99.90
20442;DHT22;10380;52.102;20.614;2022-07-09T14:01:04;21.80;99.90
20442;DHT22;10380;52.102;20.614;2022-07-09T14:03:34;22.00;99.90
20442;DHT22;10380;52.102;20.614;2022-07-09T14:06:17;22.50;99.90
20442;DHT22;10380;52.102;20.614;2022-07-09T14:09:04;22.90;99.90
20442;DHT22;10380;52.102;20.614;2022-07-09T14:11:31;23.30;99.90
20442;DHT22;10380;52.102;20.614;2022-07-09T14:13:58;23.50;99.90
20442;DHT22;10380;52.102;20.614;2022-07-09T14:16:25;23.60;99.90
20442;DHT22;10380;52.102;20.614;2022-07-09T14:18:52;23.60;99.90
20442;DHT22;10380;52.102;20.614;2022-07-09T14:21:21;23.40;99.90
20442;DHT22;10380;52.102;20.614;2022-07-09T14:23:50;23.00;99.90
20442;DHT22;10380;52.102;20.614;2022-07-09T14:26:17;22.60;99.90
20442;DHT22;10380;52.102;20.614;2022-07-09T14:28:44;22.30;99.90
20442;DHT22;10380;52.102;20.614;2022-07-09T14:31:13;22.10;99.90
20442;DHT22;10380;52.102;20.614;2022-07-09T14:33:41;21.80;99.90
20442;DHT22;10380;52.102;20.614;2022-07-09T14:36:08;21.70;99.90
20442;DHT22;10380;52.102;20.614;2022-07-09T14:38:35;21.50;99.90
20442;DHT22;10380;52.102;20.614;2022-07-09T14:41:04;21.40;99.90
20442;DHT22;10380;52.102;20.614;2022-07-09T14:43:31;21.30;99.90
20442;DHT22;10380;52.102;20.614;2022-07-09T14:45:58;21.20;99.90
20442;DHT22;10380;52.102;20.614;2022-07-09T14:48:25;21.10;99.90
20442;DHT22;10380;52.102;20.614;2022-07-09T14:50:52;21.10;99.90
20442;DHT22;10380;52.102;20.614;2022-07-09T14:53:19;21.10;99.90
20442;DHT22;10380;52.102;20.614;2022-07-09T14:55:46;21.10;99.90
20442;DHT22;10380;52.102;20.614;2022-07-09T14:58:15;21.00;99.90
20442;DHT22;10380;52.102;20.614;2022-07-09T15:00:43;21.00;99.90
20442;DHT22;10380;52.102;20.614;2022-07-09T15:03:10;20.90;99.90
20442;DHT22;10380;52.102;20.614;2022-07-09T15:05:37;20.90;99.90
20442;DHT22;10380;52.102;20.614;2022-07-09T15:08:10;20.90;99.90
20442;DHT22;10380;52.102;20.614;2022-07-09T15:10:37;20.90;99.90
20442;DHT22;10380;52.102;20.614;2022-07-09T15:13:05;21.00;99.90
20442;DHT22;10380;52.102;20.614;2022-07-09T15:15:36;20.90;99.90
20442;DHT22;10380;52.102;20.614;2022-07-09T15:18:03;20.80;99.90
20442;DHT22;10380;52.102;20.614;2022-07-09T15:20:31;20.70;99.90
20442;DHT22;10380;52.102;20.614;2022-07-09T15:22:59;20.70;99.90
20442;DHT22;10380;52.102;20.614;2022-07-09T15:25:26;20.60;99.90
20442;DHT22;10380;52.102;20.614;2022-07-09T15:27:55;20.60;99.90
20442;DHT22;10380;52.102;20.614;2022-07-09T15:30:22;20.60;99.90